Time;durP1;ratioP1;P1;durP2;ratioP2;P2;SDS_P1;SDS_P2;PMS_P1;PMS_P2;Temp;Humidity;BMP_temperature;BMP_pressure;BME280_temperature;BME280_humidity;BME280_pressure;Samples;Min_cycle;Max_cycle;Signal;HPM_P1;HPM_P2
2023/05/05 00:00:30;;;;;;;;;;;;;;;14.33;55.32715;101545.5;;;;-69
2023/05/05 00:03:50;;;;;;;6;3.8;;;;;;;;;;;;;-70
2023/05/05 00:05:30;;;;;;;;;;;;;;;14.29;55.38965;101548.1;;;;-69
2023/05/05 00:10:30;;;;;;;;;;;;;;;14.26;55.50879;101540.1;;;;-69
2023/05/05 00:15:33;;;;;;;;;;;;;;;14.24;55.35059;101535.9;;;;-69
2023/05/05 00:20:30;;;;;;;;;;;;;;;14.23;55.5625;101524;;;;-68
2023/05/05 00:25:30;;;;;;;;;;;;;;;14.22;55.44824;101509.5;;;;-69
2023/05/05 00:30:32;;;;;;;;;;;;;;;14.2;55.55762;101509.3;;;;-69
2023/05/05 00:33:52;;;;;;;7.3;3.9;;;;;;;;;;;;;-68
2023/05/05 00:35:30;;;;;;;;;;;;;;;14.22;55.12207;101519.6;;;;-70
2023/05/05 00:40:30;;;;;;;;;;;;;;;14.19;55.33203;101526.9;;;;-71
2023/05/05 00:45:30;;;;;;;;;;;;;;;14.18;55.31934;101523.1;;;;-70
2023/05/05 00:50:31;;;;;;;;;;;;;;;14.14;55.14648;101533.2;;;;-69
2023/05/05 00:55:31;;;;;;;;;;;;;;;14.12;55.61523;101538.6;;;;-70
2023/05/05 01:00:33;;;;;;;;;;;;;;;14.07;55.27246;101524.7;;;;-69
2023/05/05 01:03:54;;;;;;;7.1;3.7;;;;;;;;;;;;;-70
2023/05/05 01:05:30;;;;;;;;;;;;;;;14.04;55.90918;101510;;;;-68
2023/05/05 01:10:36;;;;;;;;;;;;;;;13.99;55.99219;101499;;;;-70
2023/05/05 01:15:33;;;;;;;;;;;;;;;13.97;56.24707;101488.7;;;;-70
2023/05/05 01:20:35;;;;;;;;;;;;;;;13.96;56.26855;101486.8;;;;-70
2023/05/05 01:25:41;;;;;;;;;;;;;;;13.96;56.78613;101460.1;;;;-69
2023/05/05 01:30:41;;;;;;;;;;;;;;;13.96;56.68457;101456.7;;;;-69
2023/05/05 01:33:58;;;;;;;9;4.9;;;;;;;;;;;;;-71
2023/05/05 01:35:32;;;;;;;;;;;;;;;13.95;56.40234;101458.5;;;;-68
2023/05/05 01:40:32;;;;;;;;;;;;;;;13.94;56.27832;101450.2;;;;-69
2023/05/05 01:45:32;;;;;;;;;;;;;;;13.92;56.3877;101458.1;;;;-68
2023/05/05 01:50:31;;;;;;;;;;;;;;;13.9;56.6084;101456.3;;;;-69
2023/05/05 01:55:31;;;;;;;;;;;;;;;13.89;56.31543;101464.9;;;;-71
2023/05/05 02:00:34;;;;;;;;;;;;;;;13.87;56.17871;101456.6;;;;-72
2023/05/05 02:03:59;;;;;;;8.1;5.1;;;;;;;;;;;;;-70
2023/05/05 02:05:31;;;;;;;;;;;;;;;13.83;56.27441;101445;;;;-69
2023/05/05 02:10:30;;;;;;;;;;;;;;;13.8;56.50684;101466.4;;;;-68
2023/05/05 02:15:31;;;;;;;;;;;;;;;13.77;57.38867;101474.8;;;;-71
2023/05/05 02:20:31;;;;;;;;;;;;;;;13.72;57.75391;101483.7;;;;-69
2023/05/05 02:25:35;;;;;;;;;;;;;;;13.71;58.23438;101499.7;;;;-69
2023/05/05 02:30:31;;;;;;;;;;;;;;;13.66;58.77832;101495.6;;;;-69
2023/05/05 02:34:00;;;;;;;10;5.7;;;;;;;;;;;;;-71
2023/05/05 02:35:35;;;;;;;;;;;;;;;13.61;59.41113;101515.7;;;;-71
2023/05/05 02:40:31;;;;;;;;;;;;;;;13.59;60.90918;101518.8;;;;-72
2023/05/05 02:45:31;;;;;;;;;;;;;;;13.53;60.55469;101517.6;;;;-68
2023/05/05 02:50:30;;;;;;;;;;;;;;;13.46;60.0293;101508.8;;;;-69
2023/05/05 02:55:34;;;;;;;;;;;;;;;13.43;60.59668;101500.7;;;;-70
2023/05/05 03:00:34;;;;;;;;;;;;;;;13.41;60.20117;101504.3;;;;-70
2023/05/05 03:04:07;;;;;;;7.8;4.8;;;;;;;;;;;;;-69
2023/05/05 03:05:31;;;;;;;;;;;;;;;13.33;60.2666;101503.4;;;;-70
2023/05/05 03:10:32;;;;;;;;;;;;;;;13.25;60.60449;101505.5;;;;-71
2023/05/05 03:15:32;;;;;;;;;;;;;;;13.2;61.0791;101504.1;;;;-69
2023/05/05 03:20:30;;;;;;;;;;;;;;;13.15;60.64648;101505;;;;-72
2023/05/05 03:25:40;;;;;;;;;;;;;;;13.13;61.5957;101514.1;;;;-70
2023/05/05 03:30:33;;;;;;;;;;;;;;;13.07;62.01172;101521.3;;;;-70
2023/05/05 03:34:03;;;;;;;6.9;4.1;;;;;;;;;;;;;-69
2023/05/05 03:35:30;;;;;;;;;;;;;;;13;61.8125;101521.9;;;;-68
2023/05/05 03:40:30;;;;;;;;;;;;;;;12.97;63.59766;101533.3;;;;-72
2023/05/05 03:45:33;;;;;;;;;;;;;;;12.91;63.5791;101537.9;;;;-69
2023/05/05 03:50:30;;;;;;;;;;;;;;;12.83;62.84082;101535;;;;-69
2023/05/05 03:55:30;;;;;;;;;;;;;;;12.78;62.92188;101539.6;;;;-69
2023/05/05 04:00:30;;;;;;;;;;;;;;;12.72;62.49902;101526.9;;;;-70
2023/05/05 04:04:05;;;;;;;10.6;4;;;;;;;;;;;;;-69
2023/05/05 04:05:30;;;;;;;;;;;;;;;12.63;62.96875;101531.9;;;;-71
2023/05/05 04:10:30;;;;;;;;;;;;;;;12.6;62.05762;101549.1;;;;-69
2023/05/05 04:15:31;;;;;;;;;;;;;;;12.55;61.92676;101567.2;;;;-70
2023/05/05 04:20:30;;;;;;;;;;;;;;;12.56;62.96875;101574.6;;;;-69
2023/05/05 04:25:30;;;;;;;;;;;;;;;12.55;62.2627;101575.4;;;;-68
2023/05/05 04:30:30;;;;;;;;;;;;;;;12.53;62.33789;101585.5;;;;-69
2023/05/05 04:34:07;;;;;;;8.4;4.6;;;;;;;;;;;;;-69
2023/05/05 04:35:30;;;;;;;;;;;;;;;12.51;61.5752;101588.3;;;;-73
2023/05/05 04:40:30;;;;;;;;;;;;;;;12.46;61.70313;101594;;;;-68
2023/05/05 04:45:30;;;;;;;;;;;;;;;12.43;61.76465;101598.9;;;;-69
2023/05/05 04:50:32;;;;;;;;;;;;;;;12.43;61.68848;101597.5;;;;-71
2023/05/05 04:55:30;;;;;;;;;;;;;;;12.36;61.15137;101612.1;;;;-71
2023/05/05 05:00:32;;;;;;;;;;;;;;;12.33;61.13672;101615.6;;;;-70
2023/05/05 05:04:09;;;;;;;8.8;4.4;;;;;;;;;;;;;-73
2023/05/05 05:05:30;;;;;;;;;;;;;;;12.36;61.01855;101627.4;;;;-72
2023/05/05 05:10:30;;;;;;;;;;;;;;;12.41;60.86816;101627;;;;-72
2023/05/05 05:15:30;;;;;;;;;;;;;;;12.46;60.98828;101633.5;;;;-72
2023/05/05 05:20:30;;;;;;;;;;;;;;;12.54;60.75293;101640.6;;;;-72
2023/05/05 05:25:30;;;;;;;;;;;;;;;12.56;60.67676;101635;;;;-72
2023/05/05 05:30:30;;;;;;;;;;;;;;;12.65;60.19727;101634.8;;;;-71
2023/05/05 05:34:10;;;;;;;9.2;4.8;;;;;;;;;;;;;-71
2023/05/05 05:35:30;;;;;;;;;;;;;;;12.79;60.10352;101637.9;;;;-71
2023/05/05 05:40:32;;;;;;;;;;;;;;;13.24;60.08789;101644.6;;;;-71
2023/05/05 05:45:30;;;;;;;;;;;;;;;13.78;59.30859;101645.4;;;;-72
2023/05/05 05:50:30;;;;;;;;;;;;;;;14.31;58.57227;101644.5;;;;-71
2023/05/05 05:55:33;;;;;;;;;;;;;;;14.46;58.50195;101656.6;;;;-73
2023/05/05 06:00:30;;;;;;;;;;;;;;;14.46;59.14355;101654;;;;-72
2023/05/05 06:04:12;;;;;;;9.7;5.2;;;;;;;;;;;;;-73
2023/05/05 06:05:30;;;;;;;;;;;;;;;14.52;59.21875;101646.6;;;;-71
2023/05/05 06:10:30;;;;;;;;;;;;;;;15;58.97949;101640.2;;;;-72
2023/05/05 06:15:30;;;;;;;;;;;;;;;15.57;58.17676;101631.9;;;;-71
2023/05/05 06:20:30;;;;;;;;;;;;;;;16.27;57.27539;101637.7;;;;-71
2023/05/05 06:25:30;;;;;;;;;;;;;;;16.79;55.65918;101656.5;;;;-71
2023/05/05 06:30:30;;;;;;;;;;;;;;;17.23;56.15625;101660.8;;;;-72
2023/05/05 06:34:13;;;;;;;11.6;5.8;;;;;;;;;;;;;-73
2023/05/05 06:35:30;;;;;;;;;;;;;;;17.63;55.64063;101660.1;;;;-72
2023/05/05 06:40:30;;;;;;;;;;;;;;;17.98;55.21973;101661.5;;;;-72
2023/05/05 06:45:30;;;;;;;;;;;;;;;18.37;54.82422;101663.2;;;;-73
2023/05/05 06:50:30;;;;;;;;;;;;;;;18.78;54.22852;101661.5;;;;-72
2023/05/05 06:55:30;;;;;;;;;;;;;;;19.17;53.33203;101662.2;;;;-74
2023/05/05 07:00:30;;;;;;;;;;;;;;;19.54;52.5;101670.8;;;;-72
2023/05/05 07:04:16;;;;;;;11.2;5.4;;;;;;;;;;;;;-73
2023/05/05 07:05:30;;;;;;;;;;;;;;;19.72;52.49902;101666.3;;;;-72
2023/05/05 07:10:30;;;;;;;;;;;;;;;19.93;52.6709;101673.3;;;;-72
2023/05/05 07:15:30;;;;;;;;;;;;;;;20.11;52.31738;101673;;;;-72
2023/05/05 07:20:30;;;;;;;;;;;;;;;20.35;52.17285;101681.7;;;;-73
2023/05/05 07:25:30;;;;;;;;;;;;;;;20.53;52.125;101687.6;;;;-74
2023/05/05 07:30:30;;;;;;;;;;;;;;;20.73;51.62305;101688;;;;-72
2023/05/05 07:34:21;;;;;;;9.3;4.3;;;;;;;;;;;;;-73
2023/05/05 07:35:30;;;;;;;;;;;;;;;20.88;51.56152;101687.9;;;;-71
2023/05/05 07:40:30;;;;;;;;;;;;;;;21.16;51.63965;101683.3;;;;-72
2023/05/05 07:45:30;;;;;;;;;;;;;;;21.42;51.38281;101686.1;;;;-72
2023/05/05 07:50:30;;;;;;;;;;;;;;;21.55;50.82617;101685.2;;;;-73
2023/05/05 07:55:30;;;;;;;;;;;;;;;21.73;50.16016;101679.2;;;;-72
2023/05/05 08:00:30;;;;;;;;;;;;;;;21.84;50.0918;101674.2;;;;-71
2023/05/05 08:04:21;;;;;;;4;2.2;;;;;;;;;;;;;-72
2023/05/05 08:05:30;;;;;;;;;;;;;;;21.87;50.19727;101677.5;;;;-72
2023/05/05 08:10:30;;;;;;;;;;;;;;;22.12;50.11133;101688.6;;;;-72
2023/05/05 08:15:30;;;;;;;;;;;;;;;22.31;49.87988;101691.6;;;;-70
2023/05/05 08:20:30;;;;;;;;;;;;;;;22.51;49.60449;101694.9;;;;-74
2023/05/05 08:25:30;;;;;;;;;;;;;;;22.64;49.30859;101695.6;;;;-71
2023/05/05 08:30:30;;;;;;;;;;;;;;;22.63;49.1123;101704.5;;;;-70
2023/05/05 08:34:28;;;;;;;2.8;1.2;;;;;;;;;;;;;-72
2023/05/05 08:35:30;;;;;;;;;;;;;;;22.34;49.10352;101705.8;;;;-71
2023/05/05 08:40:32;;;;;;;;;;;;;;;22.1;49.2959;101719.5;;;;-73
2023/05/05 08:45:30;;;;;;;;;;;;;;;21.95;50.03418;101719.5;;;;-72
2023/05/05 08:48:47;;;;;;;;;;;;;;;22.01;50.43262;101719;;;;-72
2023/05/05 08:53:50;;;;;;;;;;;;;;;22.19;50.12012;101721.1;;;;-72
2023/05/05 08:58:47;;;;;;;;;;;;;;;22.24;50.06738;101725.8;;;;-72
2023/05/05 09:03:47;;;;;;;;;;;;;;;22.24;49.73535;101725.4;;;;-71
2023/05/05 09:04:29;;;;;;;3.6;1.3;;;;;;;;;;;;;-72
2023/05/05 09:08:48;;;;;;;;;;;;;;;22.4;50.19922;101724.8;;;;-72
2023/05/05 09:13:47;;;;;;;;;;;;;;;22.75;49.38965;101731.8;;;;-72
2023/05/05 09:18:49;;;;;;;;;;;;;;;22.81;48.55762;101727.1;;;;-72
2023/05/05 09:23:57;;;;;;;;;;;;;;;22.81;48.52441;101732.3;;;;-71
2023/05/05 09:29:01;;;;;;;;;;;;;;;22.89;48.34863;101734;;;;-72
2023/05/05 09:33:48;;;;;;;;;;;;;;;22.89;48.24609;101739.4;;;;-72
2023/05/05 09:34:32;;;;;;;1.7;0.9;;;;;;;;;;;;;-72
2023/05/05 09:38:59;;;;;;;;;;;;;;;22.82;47.98535;101738.9;;;;-72
2023/05/05 09:43:55;;;;;;;;;;;;;;;22.6;48.04102;101740.8;;;;-71
2023/05/05 09:48:47;;;;;;;;;;;;;;;22.31;48.75684;101736.8;;;;-72
2023/05/05 09:53:47;;;;;;;;;;;;;;;22.06;49.55469;101738.4;;;;-72
2023/05/05 09:58:47;;;;;;;;;;;;;;;21.9;49.60449;101735;;;;-74
2023/05/05 10:03:52;;;;;;;;;;;;;;;21.77;49.85449;101734.7;;;;-71
2023/05/05 10:04:36;;;;;;;1.8;0.8;;;;;;;;;;;;;-71
2023/05/05 10:08:47;;;;;;;;;;;;;;;21.63;50.125;101730.4;;;;-72
2023/05/05 10:13:47;;;;;;;;;;;;;;;21.46;50.79395;101736.3;;;;-72
2023/05/05 10:18:50;;;;;;;;;;;;;;;21.33;50.80078;101737.7;;;;-72
2023/05/05 10:23:50;;;;;;;;;;;;;;;21.21;51.2334;101747;;;;-72
2023/05/05 10:28:48;;;;;;;;;;;;;;;21.11;51.50781;101744.4;;;;-72
2023/05/05 10:33:50;;;;;;;;;;;;;;;21.06;51.52441;101744.7;;;;-73
2023/05/05 10:34:48;;;;;;;2.8;0.9;;;;;;;;;;;;;-73
2023/05/05 10:38:50;;;;;;;;;;;;;;;21;51.91699;101739.7;;;;-72
2023/05/05 10:43:50;;;;;;;;;;;;;;;20.94;52.36719;101738.4;;;;-72
2023/05/05 10:48:50;;;;;;;;;;;;;;;20.89;52.4873;101735.8;;;;-73
2023/05/05 10:53:55;;;;;;;;;;;;;;;20.81;52.84277;101731.9;;;;-73
2023/05/05 10:58:47;;;;;;;;;;;;;;;20.78;52.9082;101732.3;;;;-73
2023/05/05 11:03:47;;;;;;;;;;;;;;;20.78;52.83984;101725.6;;;;-73
2023/05/05 11:04:43;;;;;;;1.5;0.9;;;;;;;;;;;;;-73
2023/05/05 11:08:50;;;;;;;;;;;;;;;20.75;52.92871;101727.4;;;;-73
2023/05/05 11:13:47;;;;;;;;;;;;;;;20.73;52.78809;101729.8;;;;-72
2023/05/05 11:18:47;;;;;;;;;;;;;;;20.7;53.01367;101727.6;;;;-72
2023/05/05 11:23:47;;;;;;;;;;;;;;;20.68;53.05664;101727.5;;;;-69
2023/05/05 11:29:07;;;;;;;;;;;;;;;20.64;53.13281;101725.6;;;;-73
2023/05/05 11:33:47;;;;;;;;;;;;;;;20.59;53.18262;101721.5;;;;-74
2023/05/05 11:34:54;;;;;;;3.1;0.9;;;;;;;;;;;;;-74
2023/05/05 11:38:55;;;;;;;;;;;;;;;20.52;53.57422;101718.6;;;;-74
2023/05/05 11:43:47;;;;;;;;;;;;;;;20.43;54.22363;101714.4;;;;-76
2023/05/05 11:48:53;;;;;;;;;;;;;;;20.36;54.76367;101717.6;;;;-73
2023/05/05 11:53:49;;;;;;;;;;;;;;;20.33;54.69141;101716.9;;;;-70
2023/05/05 11:58:47;;;;;;;;;;;;;;;20.28;54.80957;101733.2;;;;-68
2023/05/05 12:03:47;;;;;;;;;;;;;;;20.19;54.85645;101736.7;;;;-69
2023/05/05 12:04:50;;;;;;;2.1;0.9;;;;;;;;;;;;;-70
2023/05/05 12:08:47;;;;;;;;;;;;;;;20.1;55.03906;101736.3;;;;-70
2023/05/05 12:13:47;;;;;;;;;;;;;;;20.02;55.25781;101730.3;;;;-69
2023/05/05 12:18:48;;;;;;;;;;;;;;;19.97;55.2627;101733.7;;;;-69
2023/05/05 12:23:47;;;;;;;;;;;;;;;19.88;55.47754;101732.5;;;;-71
2023/05/05 12:28:50;;;;;;;;;;;;;;;19.74;55.34863;101732.3;;;;-70
2023/05/05 12:33:48;;;;;;;;;;;;;;;19.58;55.80566;101730.9;;;;-70
2023/05/05 12:34:56;;;;;;;2.6;1;;;;;;;;;;;;;-69
2023/05/05 12:38:49;;;;;;;;;;;;;;;19.47;56.03125;101723.8;;;;-68
2023/05/05 12:43:49;;;;;;;;;;;;;;;19.38;56.22266;101726.9;;;;-70
2023/05/05 12:48:47;;;;;;;;;;;;;;;19.29;56.48535;101734;;;;-71
2023/05/05 12:53:48;;;;;;;;;;;;;;;19.15;56.63867;101732.1;;;;-71
2023/05/05 12:58:54;;;;;;;;;;;;;;;19;57.02734;101727;;;;-70
2023/05/05 13:03:47;;;;;;;;;;;;;;;18.88;57.35352;101730.8;;;;-71
2023/05/05 13:05:00;;;;;;;2.9;1.1;;;;;;;;;;;;;-70
2023/05/05 13:08:52;;;;;;;;;;;;;;;18.79;57.5918;101734.1;;;;-71
2023/05/05 13:13:50;;;;;;;;;;;;;;;18.69;57.80664;101735.5;;;;-70
2023/05/05 13:18:52;;;;;;;;;;;;;;;18.58;58.12012;101743.5;;;;-71
2023/05/05 13:23:51;;;;;;;;;;;;;;;18.42;58.38379;101743.2;;;;-74
2023/05/05 13:28:48;;;;;;;;;;;;;;;18.26;58.57715;101740.7;;;;-70
2023/05/05 13:33:47;;;;;;;;;;;;;;;18.15;58.46094;101739.1;;;;-69
2023/05/05 13:35:00;;;;;;;2.8;1.3;;;;;;;;;;;;;-70
2023/05/05 13:38:47;;;;;;;;;;;;;;;18;58.87207;101735.6;;;;-71
2023/05/05 13:43:48;;;;;;;;;;;;;;;17.91;59.09668;101746.1;;;;-69
2023/05/05 13:48:47;;;;;;;;;;;;;;;17.81;59.47949;101743.1;;;;-71
2023/05/05 13:53:47;;;;;;;;;;;;;;;17.66;60.48926;101746.2;;;;-71
2023/05/05 13:58:50;;;;;;;;;;;;;;;17.49;60.91797;101746.4;;;;-70
2023/05/05 14:03:47;;;;;;;;;;;;;;;17.35;60.52637;101739.9;;;;-70
2023/05/05 14:05:03;;;;;;;4.5;1.4;;;;;;;;;;;;;-70
2023/05/05 14:08:47;;;;;;;;;;;;;;;17.27;60.38965;101734;;;;-71
2023/05/05 14:13:48;;;;;;;;;;;;;;;17.22;61.28906;101734.8;;;;-70
2023/05/05 14:18:47;;;;;;;;;;;;;;;17.18;62.16504;101736.9;;;;-70
2023/05/05 14:23:47;;;;;;;;;;;;;;;17.19;60.78613;101731.3;;;;-70
2023/05/05 14:28:47;;;;;;;;;;;;;;;17.17;60.36621;101731.4;;;;-70
2023/05/05 14:33:47;;;;;;;;;;;;;;;17.18;60.77539;101724.6;;;;-70
2023/05/05 14:35:06;;;;;;;2.6;1.1;;;;;;;;;;;;;-70
2023/05/05 14:38:47;;;;;;;;;;;;;;;17.22;60.72363;101722.1;;;;-70
2023/05/05 14:43:50;;;;;;;;;;;;;;;17.25;61.30469;101719.4;;;;-71
2023/05/05 14:48:47;;;;;;;;;;;;;;;17.32;59.80957;101722.7;;;;-71
2023/05/05 14:53:47;;;;;;;;;;;;;;;17.41;60.19434;101718.8;;;;-74
2023/05/05 14:58:47;;;;;;;;;;;;;;;17.53;62.66504;101716.1;;;;-70
2023/05/05 15:03:47;;;;;;;;;;;;;;;17.72;64.10449;101720.2;;;;-70
2023/05/05 15:05:12;;;;;;;4.5;1.9;;;;;;;;;;;;;-70
2023/05/05 15:08:47;;;;;;;;;;;;;;;17.95;65.67578;101712.7;;;;-73
2023/05/05 15:13:47;;;;;;;;;;;;;;;18.21;65.03613;101711.1;;;;-70
2023/05/05 15:18:47;;;;;;;;;;;;;;;18.55;64.9502;101712.9;;;;-69
2023/05/05 15:23:47;;;;;;;;;;;;;;;18.74;63.15332;101715.6;;;;-70
2023/05/05 15:28:47;;;;;;;;;;;;;;;18.9;63.41406;101720.1;;;;-70
2023/05/05 15:33:48;;;;;;;;;;;;;;;19.11;62.50391;101711.4;;;;-69
2023/05/05 15:35:11;;;;;;;3.4;1.8;;;;;;;;;;;;;-69
2023/05/05 15:38:50;;;;;;;;;;;;;;;19.27;62.56934;101708.3;;;;-69
2023/05/05 15:43:47;;;;;;;;;;;;;;;19.4;62.86133;101709.4;;;;-71
2023/05/05 15:48:47;;;;;;;;;;;;;;;19.59;62.7627;101709.8;;;;-70
2023/05/05 15:53:47;;;;;;;;;;;;;;;19.65;62.52148;101706.9;;;;-73
2023/05/05 15:58:50;;;;;;;;;;;;;;;19.71;62.62109;101699.4;;;;-74
2023/05/05 16:03:47;;;;;;;;;;;;;;;19.83;62.83105;101692;;;;-73
2023/05/05 16:05:14;;;;;;;6.8;1.5;;;;;;;;;;;;;-73
2023/05/05 16:08:50;;;;;;;;;;;;;;;20.01;62.66211;101688.3;;;;-73
2023/05/05 16:13:47;;;;;;;;;;;;;;;20.03;62.26758;101683.2;;;;-73
2023/05/05 16:18:47;;;;;;;;;;;;;;;20.17;62.35645;101686;;;;-73
2023/05/05 16:23:47;;;;;;;;;;;;;;;20.15;62.39844;101679.1;;;;-72
2023/05/05 16:28:50;;;;;;;;;;;;;;;20.16;62.31934;101682.8;;;;-72
2023/05/05 16:33:47;;;;;;;;;;;;;;;20.12;62.30273;101674.9;;;;-74
2023/05/05 16:35:16;;;;;;;7.5;2.2;;;;;;;;;;;;;-75
2023/05/05 16:38:47;;;;;;;;;;;;;;;20.04;62.69043;101669.2;;;;-72
2023/05/05 16:43:47;;;;;;;;;;;;;;;20.01;63.00293;101666.7;;;;-71
2023/05/05 16:48:47;;;;;;;;;;;;;;;20.05;62.46387;101666.4;;;;-73
2023/05/05 16:53:51;;;;;;;;;;;;;;;20.08;62.42285;101664.8;;;;-74
2023/05/05 16:58:47;;;;;;;;;;;;;;;20.09;62.24219;101668;;;;-72
2023/05/05 17:03:47;;;;;;;;;;;;;;;20.04;62.15625;101667.6;;;;-72
2023/05/05 17:05:20;;;;;;;4.6;2.2;;;;;;;;;;;;;-72
2023/05/05 17:08:47;;;;;;;;;;;;;;;19.84;62.12891;101668;;;;-71
2023/05/05 17:13:47;;;;;;;;;;;;;;;19.64;62.19141;101666.2;;;;-72
2023/05/05 17:18:47;;;;;;;;;;;;;;;19.58;62.5332;101661.1;;;;-72
2023/05/05 17:23:47;;;;;;;;;;;;;;;19.48;62.42969;101655.5;;;;-73
2023/05/05 17:28:47;;;;;;;;;;;;;;;18.26;66.99805;101668.1;;;;-73
2023/05/05 17:33:47;;;;;;;;;;;;;;;17.81;68.43262;101671.8;;;;-76
2023/05/05 17:35:22;;;;;;;7.9;4.4;;;;;;;;;;;;;-72
2023/05/05 17:38:47;;;;;;;;;;;;;;;17.46;69.90234;101670.1;;;;-72
2023/05/05 17:43:47;;;;;;;;;;;;;;;18.12;66.77539;101665.5;;;;-71
2023/05/05 17:48:47;;;;;;;;;;;;;;;18.58;64.37598;101665.9;;;;-73
2023/05/05 17:53:47;;;;;;;;;;;;;;;18.63;63.94141;101670.5;;;;-74
2023/05/05 17:58:47;;;;;;;;;;;;;;;18.54;63.56738;101672.1;;;;-73
2023/05/05 18:03:47;;;;;;;;;;;;;;;18.42;63.48242;101669.6;;;;-72
2023/05/05 18:05:25;;;;;;;6.5;3.2;;;;;;;;;;;;;-74
2023/05/05 18:08:47;;;;;;;;;;;;;;;18.32;63.60254;101671.3;;;;-72
2023/05/05 18:13:47;;;;;;;;;;;;;;;18.23;63.37402;101675.5;;;;-72
2023/05/05 18:18:48;;;;;;;;;;;;;;;18.13;63.37305;101674.5;;;;-70
2023/05/05 18:23:47;;;;;;;;;;;;;;;18.05;63.33887;101681.9;;;;-72
2023/05/05 18:28:47;;;;;;;;;;;;;;;17.98;63.31641;101681.7;;;;-72
2023/05/05 18:33:47;;;;;;;;;;;;;;;17.93;62.26953;101683.8;;;;-73
2023/05/05 18:35:28;;;;;;;5.7;3.1;;;;;;;;;;;;;-72
2023/05/05 18:38:47;;;;;;;;;;;;;;;17.86;62.17871;101682.1;;;;-72
2023/05/05 18:43:47;;;;;;;;;;;;;;;17.76;61.98438;101680.7;;;;-70
2023/05/05 18:48:47;;;;;;;;;;;;;;;17.62;62.16992;101682.9;;;;-72
2023/05/05 18:53:47;;;;;;;;;;;;;;;17.48;62.23926;101683.3;;;;-72
2023/05/05 18:58:47;;;;;;;;;;;;;;;17.33;61.87988;101688.6;;;;-72
2023/05/05 19:03:48;;;;;;;;;;;;;;;17.18;62.46875;101691.8;;;;-72
2023/05/05 19:05:33;;;;;;;5.6;3.2;;;;;;;;;;;;;-72
2023/05/05 19:08:47;;;;;;;;;;;;;;;17.02;62.50293;101690.9;;;;-73
2023/05/05 19:13:48;;;;;;;;;;;;;;;16.88;62.39355;101698.3;;;;-72
2023/05/05 19:18:47;;;;;;;;;;;;;;;16.73;62.78809;101696.7;;;;-72
2023/05/05 19:23:47;;;;;;;;;;;;;;;16.58;63.00391;101706.1;;;;-74
2023/05/05 19:28:47;;;;;;;;;;;;;;;16.41;63.06934;101714.1;;;;-72
2023/05/05 19:33:47;;;;;;;;;;;;;;;16.27;63.61328;101714.6;;;;-70
2023/05/05 19:35:32;;;;;;;5.7;3.7;;;;;;;;;;;;;-74
2023/05/05 19:38:47;;;;;;;;;;;;;;;16.1;62.98047;101712.4;;;;-73
2023/05/05 19:43:48;;;;;;;;;;;;;;;15.96;63.04004;101713.3;;;;-72
2023/05/05 19:48:47;;;;;;;;;;;;;;;15.83;63.64063;101719.3;;;;-73
2023/05/05 19:53:47;;;;;;;;;;;;;;;15.69;63.18066;101724;;;;-72
2023/05/05 19:59:00;;;;;;;;;;;;;;;15.59;63.79688;101727.8;;;;-73
2023/05/05 20:03:47;;;;;;;;;;;;;;;15.49;63.33203;101728.1;;;;-72
2023/05/05 20:05:35;;;;;;;6.5;3.9;;;;;;;;;;;;;-73
2023/05/05 20:08:47;;;;;;;;;;;;;;;15.42;65.07715;101731.7;;;;-72
2023/05/05 20:13:50;;;;;;;;;;;;;;;15.32;64.49902;101725.3;;;;-73
2023/05/05 20:18:47;;;;;;;;;;;;;;;15.22;65.30469;101728.6;;;;-72
2023/05/05 20:23:47;;;;;;;;;;;;;;;15.09;64.79297;101728.5;;;;-72
2023/05/05 20:28:47;;;;;;;;;;;;;;;14.99;65.29492;101729;;;;-71
2023/05/05 20:33:47;;;;;;;;;;;;;;;14.87;65.87109;101731.4;;;;-71
2023/05/05 20:35:37;;;;;;;7.9;4.6;;;;;;;;;;;;;-71
2023/05/05 20:38:47;;;;;;;;;;;;;;;14.78;65.34082;101735.5;;;;-71
2023/05/05 20:43:47;;;;;;;;;;;;;;;14.66;66.35547;101731.6;;;;-71
2023/05/05 20:48:47;;;;;;;;;;;;;;;14.57;66.21875;101736;;;;-73
2023/05/05 20:53:47;;;;;;;;;;;;;;;14.45;65.89941;101741.4;;;;-71
2023/05/05 20:58:47;;;;;;;;;;;;;;;14.36;66.9043;101739.9;;;;-70
2023/05/05 21:03:47;;;;;;;;;;;;;;;14.27;66.65527;101744.2;;;;-70
2023/05/05 21:05:41;;;;;;;6.7;4.2;;;;;;;;;;;;;-69
2023/05/05 21:08:47;;;;;;;;;;;;;;;14.15;66.82715;101745.7;;;;-69
2023/05/05 21:13:47;;;;;;;;;;;;;;;14.07;66.9043;101746.7;;;;-70
2023/05/05 21:18:48;;;;;;;;;;;;;;;13.99;67.2627;101750.7;;;;-69
2023/05/05 21:23:48;;;;;;;;;;;;;;;13.88;67.44824;101748.2;;;;-69
2023/05/05 21:28:47;;;;;;;;;;;;;;;13.78;67.35449;101749.4;;;;-68
2023/05/05 21:33:47;;;;;;;;;;;;;;;13.71;67.16406;101748.5;;;;-71
2023/05/05 21:35:41;;;;;;;6.3;3.7;;;;;;;;;;;;;-69
2023/05/05 21:38:48;;;;;;;;;;;;;;;13.64;67.5;101751.9;;;;-69
2023/05/05 21:43:47;;;;;;;;;;;;;;;13.54;67.32813;101750.8;;;;-70
2023/05/05 21:48:51;;;;;;;;;;;;;;;13.44;67.11133;101745.5;;;;-69
2023/05/05 21:53:47;;;;;;;;;;;;;;;13.37;68.01855;101746.1;;;;-69
2023/05/05 21:58:47;;;;;;;;;;;;;;;13.31;67.50391;101746.5;;;;-69
2023/05/05 22:03:47;;;;;;;;;;;;;;;13.26;67.82129;101745.9;;;;-70
2023/05/05 22:05:43;;;;;;;6.3;3.4;;;;;;;;;;;;;-70
2023/05/05 22:08:47;;;;;;;;;;;;;;;13.2;67.75684;101745.6;;;;-69
2023/05/05 22:13:47;;;;;;;;;;;;;;;13.22;67.75977;101741;;;;-69
2023/05/05 22:18:47;;;;;;;;;;;;;;;13.15;68.01758;101736.2;;;;-70
2023/05/05 22:23:47;;;;;;;;;;;;;;;13.09;67.47168;101728.4;;;;-68
2023/05/05 22:28:47;;;;;;;;;;;;;;;13.07;67.48047;101727.7;;;;-69
2023/05/05 22:33:47;;;;;;;;;;;;;;;12.99;68.27051;101730.5;;;;-69
2023/05/05 22:35:45;;;;;;;4.8;3.1;;;;;;;;;;;;;-69
2023/05/05 22:38:47;;;;;;;;;;;;;;;12.94;67.57031;101728.6;;;;-69
2023/05/05 22:43:48;;;;;;;;;;;;;;;12.86;68.0625;101723.2;;;;-69
2023/05/05 22:48:47;;;;;;;;;;;;;;;12.83;68.01172;101727.6;;;;-69
2023/05/05 22:53:47;;;;;;;;;;;;;;;12.78;68.61719;101728.2;;;;-69
2023/05/05 22:58:47;;;;;;;;;;;;;;;12.72;67.69336;101728.4;;;;-70
2023/05/05 23:03:47;;;;;;;;;;;;;;;12.65;67.62598;101736;;;;-71
2023/05/05 23:05:46;;;;;;;6.1;3;;;;;;;;;;;;;-69
2023/05/05 23:08:47;;;;;;;;;;;;;;;12.62;68.09082;101731;;;;-71
2023/05/05 23:13:47;;;;;;;;;;;;;;;12.55;68.19141;101731.4;;;;-69
2023/05/05 23:18:47;;;;;;;;;;;;;;;12.5;67.89453;101729.6;;;;-69
2023/05/05 23:23:49;;;;;;;;;;;;;;;12.46;68.05469;101725.6;;;;-69
2023/05/05 23:28:47;;;;;;;;;;;;;;;12.44;67.90625;101729;;;;-69
2023/05/05 23:33:47;;;;;;;;;;;;;;;12.46;68.21191;101721.3;;;;-69
2023/05/05 23:35:47;;;;;;;6.5;3.7;;;;;;;;;;;;;-70
2023/05/05 23:38:47;;;;;;;;;;;;;;;12.44;67.92871;101720.2;;;;-69
2023/05/05 23:43:47;;;;;;;;;;;;;;;12.48;67.91211;101721.1;;;;-69
2023/05/05 23:48:48;;;;;;;;;;;;;;;12.48;68.89355;101718.3;;;;-70
2023/05/05 23:53:47;;;;;;;;;;;;;;;12.47;67.91211;101703.4;;;;-69
2023/05/05 23:58:47;;;;;;;;;;;;;;;12.43;67.9502;101704.5;;;;-69
